LMML/MLA METAR and TAF weather

Enter ICAO airport designator
Station Type Date Time Source
LMML METAR 2019/12/08 03:45 UTC NOAA

LMML 080345Z 29004KT CAVOK 12/12 Q1021 NOSIG


Station Type Date Time Source
LMML Decoded METAR 2019/12/08 03:45 UTC NOAA

Luqa, Malta (LMML) 35-51N 014-29E 91M
Dec 07, 2019 - 10:45 PM EST / 2019.12.08 0345 UTC
Wind: from the WNW (290 degrees) at 5 MPH (4 KT):0
Visibility: greater than 7 mile(s):0
Temperature: 53 F (12 C)
Dew Point: 53 F (12 C)
Relative Humidity: 100%
Pressure (altimeter): 30.15 in. Hg (1021 hPa)
ob: LMML 080345Z 29004KT CAVOK 12/12 Q1021 NOSIG
cycle: 4

Station Type Date Time Source
LMML TAF 2019/12/07 18:46 UTC NOAA

TAF
AMD LMML 071700Z 0718/0818 VRB07KT 9999 FEW020 PROB40
TEMPO 0805/0818 8000 SHRA
BECMG 0815/0818 10012KT

Example: see airport list